Current Weather

Guemar

Guemar, Algeria (DAUO)

Report from: Tuesday, June 18, 2024 1:00 PM CET
Current time: Tuesday, June 18, 2024 2:04 PM CET

Nearby weather – Weather history – Daily summaries
Weather forecast

Temperature39.0°C (102.2°F)
Heat index36.9°C (98.5°F)
Dew point8.0°C (46.4°F)
Winds 7 kts (3.6 m/s, 8.1 mph) South-Southeast (160°)
Clouds Sky clear
Altimeter29.94 in.Hg (1014 mB)
Relative humidity15 %
Density altitude2,834 ft. (864 m)
Remarks Ceiling and visibility OK
Flight conditions Visual Meteorological Conditions
Raw dataDAUO 181200Z 16007KT CAVOK 39/08 Q1014
An error has occurred. This application may no longer respond until reloaded. Reload 🗙